Time;durP1;ratioP1;P1;durP2;ratioP2;P2;SDS_P1;SDS_P2;PMS_P1;PMS_P2;Temp;Humidity;BMP_temperature;BMP_pressure;BME280_temperature;BME280_humidity;BME280_pressure;Samples;Min_cycle;Max_cycle;Signal;HPM_P1;HPM_P2
2022/12/21 00:01:54;;;;;;;28.40;13.38;;;;;;;0.24;70.63;98648.31;5089537;28;20036;-65
2022/12/21 00:04:20;;;;;;;29.23;14.38;;;;;;;0.23;71.17;98651.25;5092541;28;20034;-65
2022/12/21 00:06:45;;;;;;;33.40;14.20;;;;;;;0.24;70.68;98637.53;5091134;28;20472;-65
2022/12/21 00:09:13;;;;;;;26.80;12.90;;;;;;;0.23;70.68;98648.56;5091605;28;20020;-65
2022/12/21 00:11:39;;;;;;;28.48;12.85;;;;;;;0.22;71.13;98650.44;5092388;28;20028;-65
2022/12/21 00:14:05;;;;;;;31.30;14.20;;;;;;;0.23;70.98;98651.25;5091546;28;20024;-65
2022/12/21 00:16:33;;;;;;;29.13;14.43;;;;;;;0.22;71.23;98655.00;5091507;28;20024;-64
2022/12/21 00:18:59;;;;;;;30.00;13.52;;;;;;;0.24;71.32;98675.31;5085450;28;20081;-65
2022/12/21 00:21:29;;;;;;;29.50;13.20;;;;;;;0.22;70.76;98666.59;5091186;28;20514;-65
2022/12/21 00:23:59;;;;;;;30.80;14.93;;;;;;;0.23;71.42;98665.56;5090984;28;20275;-65
2022/12/21 00:26:28;;;;;;;27.83;13.07;;;;;;;0.23;71.07;98660.16;5090965;28;20059;-64
2022/12/21 00:28:54;;;;;;;28.17;13.50;;;;;;;0.22;70.74;98669.31;5092391;28;20056;-66
2022/12/21 00:31:32;;;;;;;27.63;12.52;;;;;;;0.23;71.02;98664.75;5091536;28;20024;-67
2022/12/21 00:33:58;;;;;;;28.00;13.05;;;;;;;0.23;71.12;98651.25;5091882;28;20111;-65
2022/12/21 00:36:26;;;;;;;27.98;13.13;;;;;;;0.24;71.12;98652.91;5073398;28;20036;-67
2022/12/21 00:38:52;;;;;;;33.92;15.48;;;;;;;0.25;71.17;98659.97;5091870;28;20016;-66
2022/12/21 00:41:21;;;;;;;28.67;12.93;;;;;;;0.22;71.34;98646.91;5091504;28;20027;-66
2022/12/21 00:43:49;;;;;;;29.13;12.77;;;;;;;0.23;71.15;98635.06;5090350;28;20024;-67
2022/12/21 00:46:26;;;;;;;28.70;13.40;;;;;;;0.22;71.35;98649.63;5091931;28;20056;-66
2022/12/21 00:48:52;;;;;;;26.83;12.27;;;;;;;0.21;71.01;98667.66;5091678;28;20470;-67
2022/12/21 00:51:24;;;;;;;27.70;13.20;;;;;;;0.19;71.22;98659.00;5088256;28;20035;-66
2022/12/21 00:53:51;;;;;;;26.70;13.55;;;;;;;0.18;71.10;98672.69;5091754;28;20020;-66
2022/12/21 00:56:16;;;;;;;27.60;12.75;;;;;;;0.18;71.24;98680.78;5091511;28;20088;-66
2022/12/21 00:58:42;;;;;;;27.42;12.52;;;;;;;0.19;71.30;98677.03;5091173;28;20035;-66
2022/12/21 01:01:14;;;;;;;28.40;13.38;;;;;;;0.18;71.32;98675.38;5090904;28;20028;-66
2022/12/21 01:03:40;;;;;;;26.85;13.30;;;;;;;0.18;70.83;98678.09;5089003;28;20036;-67
2022/12/21 01:06:06;;;;;;;28.52;13.18;;;;;;;0.17;70.87;98653.00;5091337;28;20023;-66
2022/12/21 01:08:31;;;;;;;27.05;13.25;;;;;;;0.18;71.07;98646.56;5083264;28;20106;-65
2022/12/21 01:11:02;;;;;;;25.65;12.45;;;;;;;0.16;70.91;98654.03;5090256;28;20414;-65
2022/12/21 01:13:29;;;;;;;31.45;14.38;;;;;;;0.16;71.15;98675.63;5091068;28;20464;-66
2022/12/21 01:15:55;;;;;;;39.28;17.60;;;;;;;0.14;70.97;98667.72;5073342;28;20538;-66
2022/12/21 01:18:22;;;;;;;36.22;15.32;;;;;;;0.15;71.13;98655.09;5090389;28;20036;-67
2022/12/21 01:20:49;;;;;;;45.05;18.88;;;;;;;0.14;71.27;98670.44;5086490;28;20032;-66
2022/12/21 01:23:15;;;;;;;74.90;23.85;;;;;;;0.15;70.99;98665.88;5091027;28;20028;-66
2022/12/21 01:25:45;;;;;;;34.70;14.55;;;;;;;0.12;71.06;98660.94;5091790;28;20112;-67
2022/12/21 01:28:12;;;;;;;36.15;14.55;;;;;;;0.14;71.20;98653.44;5091234;28;20051;-66
2022/12/21 01:30:38;;;;;;;34.75;14.45;;;;;;;0.13;71.44;98649.09;5072163;28;20032;-66
2022/12/21 01:33:05;;;;;;;31.05;14.68;;;;;;;0.16;70.92;98672.91;5091236;28;20028;-66
2022/12/21 01:35:30;;;;;;;32.35;14.23;;;;;;;0.16;71.47;98662.13;5090933;28;20032;-66
2022/12/21 01:37:56;;;;;;;31.63;12.93;;;;;;;0.17;71.55;98673.72;5090635;28;20101;-66
2022/12/21 01:40:21;;;;;;;28.30;13.30;;;;;;;0.17;71.00;98647.59;5090167;28;20042;-66
2022/12/21 01:42:46;;;;;;;27.75;13.18;;;;;;;0.17;71.03;98647.59;5091421;28;20102;-66
2022/12/21 01:45:18;;;;;;;30.65;13.40;;;;;;;0.18;71.22;98643.84;5091302;28;20048;-66
2022/12/21 01:47:55;;;;;;;31.65;14.93;;;;;;;0.17;71.46;98623.31;5089053;28;20099;-65
2022/12/21 01:50:34;;;;;;;26.50;13.15;;;;;;;0.17;71.16;98634.13;5087185;28;20036;-67
2022/12/21 01:53:06;;;;;;;29.08;12.73;;;;;;;0.17;71.08;98626.03;5090377;28;20042;-67
2022/12/21 01:55:34;;;;;;;27.15;12.88;;;;;;;0.17;71.25;98620.63;5090406;28;20032;-66
2022/12/21 01:58:01;;;;;;;28.02;13.23;;;;;;;0.17;71.41;98623.31;5091105;28;20032;-67
2022/12/21 02:00:27;;;;;;;25.55;12.43;;;;;;;0.19;71.53;98620.38;5090186;28;20086;-67
2022/12/21 02:03:00;;;;;;;27.48;13.13;;;;;;;0.21;71.58;98604.81;5090285;28;20032;-66
2022/12/21 02:05:38;;;;;;;31.35;14.25;;;;;;;0.19;71.22;98596.94;5091655;28;20016;-66
2022/12/21 02:08:04;;;;;;;29.98;13.85;;;;;;;0.21;71.54;98586.72;5072007;28;20028;-67
2022/12/21 02:10:30;;;;;;;25.17;12.45;;;;;;;0.22;71.54;98574.09;5090105;28;20495;-67
2022/12/21 02:13:02;;;;;;;26.60;12.40;;;;;;;0.24;71.16;98585.47;5067705;28;20020;-66
2022/12/21 02:15:59;;;;;;;27.30;12.82;;;;;;;0.22;71.36;98590.28;5086807;28;20027;-66
2022/12/21 02:18:43;;;;;;;26.00;12.52;;;;;;;0.22;71.59;98596.47;5083190;28;20032;-67
2022/12/21 02:21:28;;;;;;;23.60;12.32;;;;;;;0.20;71.44;98604.00;5089464;28;20048;-66
2022/12/21 02:24:06;;;;;;;28.10;13.15;;;;;;;0.20;71.47;98589.66;5091007;28;20491;-66
2022/12/21 02:26:42;;;;;;;25.45;12.10;;;;;;;0.20;71.86;98587.81;5090933;28;20055;-66
2022/12/21 02:29:45;;;;;;;27.10;12.95;;;;;;;0.17;71.44;98598.22;5090847;28;20035;-66
2022/12/21 02:32:22;;;;;;;24.63;12.63;;;;;;;0.19;72.03;98585.31;5086573;28;20040;-66
2022/12/21 02:34:58;;;;;;;26.27;12.30;;;;;;;0.19;71.46;98590.72;5092934;28;20024;-66
2022/12/21 02:37:54;;;;;;;26.27;12.60;;;;;;;0.17;71.75;98590.13;5094275;28;20024;-66
2022/12/21 02:40:57;;;;;;;25.55;12.75;;;;;;;0.18;72.10;98571.03;5092475;28;20047;-66
2022/12/21 02:47:04;;;;;;;25.85;11.80;;;;;;;0.17;71.75;98563.97;5094301;28;20427;-66
2022/12/21 02:49:40;;;;;;;23.48;10.93;;;;;;;0.18;71.72;98565.63;5094094;28;20424;-67
2022/12/21 02:52:11;;;;;;;27.30;12.02;;;;;;;0.20;72.20;98573.50;5091400;28;20058;-66
2022/12/21 02:54:39;;;;;;;23.20;11.27;;;;;;;0.19;72.16;98583.47;5094209;28;20028;-66
2022/12/21 02:57:04;;;;;;;24.88;12.00;;;;;;;0.22;72.35;98587.56;5089833;28;20031;-67
2022/12/21 02:59:35;;;;;;;22.50;11.15;;;;;;;0.21;72.30;98592.13;5093267;28;20039;-66
2022/12/21 03:02:32;;;;;;;22.73;10.73;;;;;;;0.22;72.65;98599.16;5092530;28;20054;-66
2022/12/21 03:05:23;;;;;;;23.20;11.25;;;;;;;0.27;72.07;98593.13;5094127;28;20028;-66
2022/12/21 03:08:03;;;;;;;22.00;10.85;;;;;;;0.30;72.29;98587.28;5091081;28;20508;-65
2022/12/21 03:11:11;;;;;;;24.08;11.95;;;;;;;0.31;72.30;98591.63;5091930;28;20395;-67
2022/12/21 03:14:09;;;;;;;21.42;10.88;;;;;;;0.33;72.30;98576.03;5089725;28;20036;-66
2022/12/21 03:16:51;;;;;;;22.45;10.95;;;;;;;0.36;72.43;98580.97;5092181;28;20477;-66
2022/12/21 03:19:40;;;;;;;22.55;11.10;;;;;;;0.39;72.90;98567.03;5093826;28;20039;-66
2022/12/21 03:22:12;;;;;;;22.80;11.02;;;;;;;0.42;72.25;98563.84;5093143;28;20081;-67
2022/12/21 03:24:56;;;;;;;19.83;10.60;;;;;;;0.44;72.72;98572.53;5093718;28;20461;-66
2022/12/21 03:27:29;;;;;;;22.35;11.07;;;;;;;0.48;72.72;98586.44;5092633;28;20063;-67
2022/12/21 03:30:03;;;;;;;23.05;11.77;;;;;;;0.51;72.65;98585.97;5092650;28;20020;-66
2022/12/21 03:32:42;;;;;;;21.40;9.65;;;;;;;0.53;72.59;98583.03;5092983;28;20503;-65
2022/12/21 03:35:20;;;;;;;20.77;9.77;;;;;;;0.56;72.98;98579.88;5093463;28;20039;-66
2022/12/21 03:37:47;;;;;;;21.30;10.93;;;;;;;0.60;73.05;98583.78;5093246;28;20024;-66
2022/12/21 03:40:21;;;;;;;22.58;11.00;;;;;;;0.62;72.41;98581.69;5092287;28;20028;-67
2022/12/21 03:42:56;;;;;;;21.08;10.32;;;;;;;0.64;72.63;98586.84;5092465;28;20100;-67
2022/12/21 03:45:27;;;;;;;22.33;11.52;;;;;;;0.65;72.75;98586.63;5093286;28;20016;-66
2022/12/21 03:48:08;;;;;;;20.80;10.00;;;;;;;0.70;73.02;98588.63;5090729;28;20027;-66
2022/12/21 03:50:39;;;;;;;20.25;10.48;;;;;;;0.73;72.85;98586.31;5092024;28;20043;-66
2022/12/21 03:53:36;;;;;;;21.10;10.88;;;;;;;0.78;72.80;98564.00;5092634;28;20494;-66
2022/12/21 03:56:06;;;;;;;20.38;9.93;;;;;;;0.83;72.86;98574.94;5092468;28;20028;-66
2022/12/21 03:58:33;;;;;;;22.08;11.63;;;;;;;0.85;72.71;98582.81;5092208;28;20080;-67
2022/12/21 04:01:09;;;;;;;21.30;11.20;;;;;;;0.86;72.99;98582.59;5091884;28;20150;-66
2022/12/21 04:03:38;;;;;;;22.45;11.02;;;;;;;0.87;73.44;98578.00;5092744;28;20047;-67
2022/12/21 04:06:10;;;;;;;21.45;9.75;;;;;;;0.88;73.30;98571.53;5092858;28;20024;-66
2022/12/21 04:08:37;;;;;;;24.48;11.02;;;;;;;0.86;72.90;98574.50;5091096;28;20036;-66
2022/12/21 04:11:02;;;;;;;22.27;10.00;;;;;;;0.86;73.49;98574.50;5091755;28;20028;-67
2022/12/21 04:13:27;;;;;;;19.58;9.93;;;;;;;0.87;73.20;98580.69;5092383;28;20387;-66
2022/12/21 04:16:05;;;;;;;20.13;10.50;;;;;;;0.85;73.46;98572.84;5092328;28;20058;-65
2022/12/21 04:21:16;;;;;;;17.75;8.90;;;;;;;0.86;73.52;98579.91;5091267;28;20055;-66
2022/12/21 04:29:10;;;;;;;22.15;10.40;;;;;;;0.91;73.15;98581.09;5077234;28;20043;-66
2022/12/21 04:31:35;;;;;;;21.08;10.45;;;;;;;0.91;73.24;98586.47;5091328;28;20024;-66
2022/12/21 04:34:01;;;;;;;22.52;11.50;;;;;;;0.89;73.59;98581.28;5091964;28;20042;-66
2022/12/21 04:39:11;;;;;;;21.83;10.60;;;;;;;0.91;73.66;98584.59;5092313;28;20066;-67
2022/12/21 04:41:36;;;;;;;21.92;9.88;;;;;;;0.93;73.73;98584.38;5091098;28;20055;-66
2022/12/21 04:44:02;;;;;;;22.85;10.23;;;;;;;0.93;73.64;98589.78;5086022;28;20055;-67
2022/12/21 04:46:27;;;;;;;23.05;12.15;;;;;;;0.91;73.98;98581.91;5090874;28;20020;-67
2022/12/21 04:48:52;;;;;;;21.38;11.05;;;;;;;0.93;73.67;98581.69;5070620;28;20145;-66
2022/12/21 04:51:20;;;;;;;22.52;11.07;;;;;;;0.94;73.44;98588.72;5090728;28;20093;-66
2022/12/21 04:53:46;;;;;;;24.58;12.15;;;;;;;0.96;73.81;98594.72;5086285;28;20110;-65
2022/12/21 04:56:11;;;;;;;24.05;11.63;;;;;;;0.95;73.91;98588.47;5091843;28;20431;-66
2022/12/21 04:58:38;;;;;;;24.20;11.52;;;;;;;0.98;73.34;98581.81;5091769;28;20377;-66
2022/12/21 05:01:10;;;;;;;22.08;10.68;;;;;;;1.00;73.51;98588.63;5089639;28;20035;-67
2022/12/21 05:03:36;;;;;;;24.95;11.80;;;;;;;1.00;73.27;98577.81;5087852;28;20031;-67
2022/12/21 05:06:01;;;;;;;22.92;10.73;;;;;;;1.02;73.85;98578.41;5091842;28;20372;-66
2022/12/21 05:08:28;;;;;;;22.58;11.27;;;;;;;1.04;73.69;98572.75;5091878;28;20023;-67
2022/12/21 05:10:53;;;;;;;22.00;10.55;;;;;;;1.04;74.07;98572.75;5090983;28;20028;-66
2022/12/21 05:13:19;;;;;;;23.52;10.30;;;;;;;1.03;73.42;98574.66;5090355;28;20028;-66
2022/12/21 05:15:45;;;;;;;25.27;11.38;;;;;;;1.06;73.39;98569.84;5073738;28;20109;-66
2022/12/21 05:18:10;;;;;;;27.95;11.80;;;;;;;1.06;73.76;98567.97;5091396;28;20035;-67
2022/12/21 05:20:36;;;;;;;24.25;10.98;;;;;;;1.06;74.27;98567.97;5090583;28;20273;-67
2022/12/21 05:23:01;;;;;;;27.65;12.90;;;;;;;1.06;73.92;98562.56;5091004;28;20048;-66
2022/12/21 05:25:27;;;;;;;23.25;11.88;;;;;;;1.07;73.89;98550.69;5072740;28;20030;-68
2022/12/21 05:27:52;;;;;;;24.70;12.20;;;;;;;1.07;74.25;98553.41;5088721;28;20117;-66
2022/12/21 05:30:18;;;;;;;27.48;12.35;;;;;;;1.09;74.21;98545.88;5091033;28;20032;-66
2022/12/21 05:32:43;;;;;;;24.25;11.88;;;;;;;1.10;74.20;98550.22;5089852;28;20028;-66
2022/12/21 05:35:09;;;;;;;24.27;11.95;;;;;;;1.11;74.28;98557.28;5091255;28;20044;-67
2022/12/21 05:37:34;;;;;;;24.25;11.73;;;;;;;1.13;74.03;98543.56;5091078;28;20383;-68
2022/12/21 05:39:59;;;;;;;25.08;11.38;;;;;;;1.12;73.96;98539.22;5089954;28;20054;-67
2022/12/21 05:42:25;;;;;;;23.38;11.68;;;;;;;1.10;74.55;98542.13;5090364;28;20458;-67
2022/12/21 05:44:50;;;;;;;25.45;11.85;;;;;;;1.12;73.92;98539.22;5091052;28;20397;-67
2022/12/21 05:47:16;;;;;;;26.67;12.05;;;;;;;1.11;74.56;98530.28;5082393;28;20026;-67
2022/12/21 05:49:41;;;;;;;26.25;11.77;;;;;;;1.13;74.10;98532.75;5090675;28;20486;-68
2022/12/21 05:52:06;;;;;;;24.35;11.95;;;;;;;1.14;74.13;98551.41;5089853;28;20027;-67
2022/12/21 05:54:32;;;;;;;23.70;12.07;;;;;;;1.15;74.04;98544.97;5090252;28;20063;-67
2022/12/21 05:56:57;;;;;;;27.98;12.93;;;;;;;1.17;74.59;98540.16;5081180;28;20043;-67
2022/12/21 05:59:22;;;;;;;26.58;12.82;;;;;;;1.21;74.43;98539.69;5090276;28;20058;-67
2022/12/21 06:01:48;;;;;;;25.70;12.07;;;;;;;1.21;74.02;98542.38;5088803;28;20412;-68
2022/12/21 06:04:13;;;;;;;27.17;13.55;;;;;;;1.23;74.51;98538.38;5089403;28;20721;-68
2022/12/21 06:06:39;;;;;;;27.65;12.27;;;;;;;1.24;74.64;98521.13;5079593;28;20427;-68
2022/12/21 06:09:04;;;;;;;29.30;15.27;;;;;;;1.23;74.15;98529.47;5091973;28;20031;-68
2022/12/21 06:11:31;;;;;;;30.50;14.20;;;;;;;1.24;73.97;98528.41;5086849;28;20020;-68
2022/12/21 06:13:56;;;;;;;25.92;12.25;;;;;;;1.25;74.28;98535.47;5090884;28;20066;-68
2022/12/21 06:16:24;;;;;;;27.38;13.00;;;;;;;1.26;74.50;98545.22;5094806;28;20414;-68
2022/12/21 06:18:50;;;;;;;26.08;13.88;;;;;;;1.26;74.32;98540.63;5094519;28;20080;-67
2022/12/21 06:21:17;;;;;;;28.40;14.30;;;;;;;1.28;74.11;98543.09;5089575;28;20135;-67
2022/12/21 06:23:43;;;;;;;30.08;13.93;;;;;;;1.27;74.49;98547.66;5092466;28;20487;-68
2022/12/21 06:26:14;;;;;;;30.27;14.13;;;;;;;1.29;74.32;98539.34;5091013;28;20032;-67
2022/12/21 06:28:39;;;;;;;28.65;14.27;;;;;;;1.30;73.94;98541.00;5090214;28;20048;-67
2022/12/21 06:31:10;;;;;;;26.98;13.07;;;;;;;1.31;74.40;98538.03;5089211;28;20082;-67
2022/12/21 06:33:36;;;;;;;26.67;13.10;;;;;;;1.32;74.27;98528.06;5091868;28;20377;-69
2022/12/21 06:36:03;;;;;;;27.65;12.65;;;;;;;1.32;74.66;98525.38;5094107;28;20024;-67
2022/12/21 06:38:30;;;;;;;24.98;12.90;;;;;;;1.30;74.21;98531.00;5093874;28;20035;-67
2022/12/21 06:41:00;;;;;;;28.77;13.65;;;;;;;1.31;73.75;98534.53;5091293;28;20032;-66
2022/12/21 06:43:28;;;;;;;27.38;13.32;;;;;;;1.32;74.50;98528.88;5091466;28;20043;-68
2022/12/21 06:46:01;;;;;;;28.02;13.38;;;;;;;1.31;74.52;98526.44;5093570;28;20488;-66
2022/12/21 06:48:28;;;;;;;32.35;14.80;;;;;;;1.30;73.99;98519.38;5092984;28;20032;-67
2022/12/21 06:51:00;;;;;;;31.42;14.75;;;;;;;1.28;74.54;98519.59;5092663;28;20036;-66
2022/12/21 06:53:29;;;;;;;30.95;14.77;;;;;;;1.28;74.34;98527.69;5091185;28;20064;-67
2022/12/21 06:56:07;;;;;;;37.23;16.90;;;;;;;1.30;74.10;98538.28;5091727;28;20040;-67
2022/12/21 06:58:33;;;;;;;32.65;14.77;;;;;;;1.31;74.56;98548.84;5093352;28;20294;-66
2022/12/21 07:01:07;;;;;;;33.00;15.25;;;;;;;1.31;74.56;98545.34;5089788;28;20044;-66
2022/12/21 07:03:33;;;;;;;37.67;17.85;;;;;;;1.32;74.05;98545.09;5090949;28;20032;-68
2022/12/21 07:05:58;;;;;;;30.90;15.70;;;;;;;1.32;74.56;98542.41;5063514;28;20075;-67
2022/12/21 07:08:23;;;;;;;32.92;14.85;;;;;;;1.33;74.16;98551.34;5093314;28;20492;-65
2022/12/21 07:10:49;;;;;;;27.27;13.55;;;;;;;1.35;74.29;98541.13;5092995;28;20028;-65
2022/12/21 07:13:14;;;;;;;28.52;13.80;;;;;;;1.34;74.46;98542.19;5093609;28;20036;-67
2022/12/21 07:15:40;;;;;;;29.52;14.00;;;;;;;1.34;74.46;98537.59;5085030;28;20085;-67
2022/12/21 07:18:05;;;;;;;29.20;13.60;;;;;;;1.34;74.89;98525.97;5091307;28;20028;-66
2022/12/21 07:20:31;;;;;;;29.63;15.23;;;;;;;1.36;74.25;98523.00;5092464;28;20024;-66
2022/12/21 07:22:58;;;;;;;29.80;13.68;;;;;;;1.38;74.19;98526.31;5092182;28;20396;-66
2022/12/21 07:25:24;;;;;;;28.48;13.57;;;;;;;1.37;74.32;98539.00;5071579;28;20070;-67
2022/12/21 07:27:49;;;;;;;27.50;13.80;;;;;;;1.38;74.35;98537.94;5091817;28;20059;-68
2022/12/21 07:30:15;;;;;;;28.38;13.77;;;;;;;1.41;74.53;98531.25;5073469;28;20039;-68
2022/12/21 07:32:40;;;;;;;30.20;14.00;;;;;;;1.42;74.70;98533.72;5071672;28;20028;-68
2022/12/21 07:35:06;;;;;;;27.50;13.13;;;;;;;1.45;74.70;98533.22;5089511;28;20028;-68
2022/12/21 07:37:32;;;;;;;25.00;13.15;;;;;;;1.46;74.50;98531.38;5092515;28;20076;-67
2022/12/21 07:39:58;;;;;;;25.73;13.20;;;;;;;1.46;74.44;98536.78;5082041;28;20725;-65
2022/12/21 07:42:24;;;;;;;31.55;15.40;;;;;;;1.47;74.50;98533.81;5091624;28;20020;-66
2022/12/21 07:44:49;;;;;;;30.80;13.65;;;;;;;1.45;74.05;98532.41;5090957;28;20441;-66
2022/12/21 07:47:15;;;;;;;29.73;14.57;;;;;;;1.45;74.70;98537.81;5090180;28;20028;-66
2022/12/21 07:49:40;;;;;;;26.45;12.85;;;;;;;1.45;74.13;98530.53;5073382;28;20169;-66
2022/12/21 07:52:05;;;;;;;25.13;13.05;;;;;;;1.47;74.28;98533.00;5091778;28;20058;-66
2022/12/21 07:54:31;;;;;;;28.02;14.40;;;;;;;1.45;75.07;98527.81;5090447;28;20024;-67
2022/12/21 07:56:56;;;;;;;28.52;12.93;;;;;;;1.43;75.05;98532.63;5090124;28;20384;-66
2022/12/21 07:59:21;;;;;;;32.78;14.60;;;;;;;1.40;74.55;98533.13;5090084;28;20064;-67
2022/12/21 08:01:47;;;;;;;31.88;14.52;;;;;;;1.43;75.12;98526.44;5091661;28;20032;-68
2022/12/21 08:04:12;;;;;;;32.17;14.25;;;;;;;1.43;74.90;98532.63;5091493;28;20468;-67
2022/12/21 08:06:37;;;;;;;32.67;13.73;;;;;;;1.41;75.22;98517.72;5091554;28;20028;-67
2022/12/21 08:09:03;;;;;;;31.27;14.65;;;;;;;1.42;75.34;98512.09;5091229;28;20492;-69
2022/12/21 08:11:29;;;;;;;39.42;14.35;;;;;;;1.45;75.45;98506.19;5090719;28;20032;-67
2022/12/21 08:13:56;;;;;;;31.27;13.70;;;;;;;1.47;75.43;98506.78;5073101;28;20039;-68
2022/12/21 08:16:22;;;;;;;46.38;16.27;;;;;;;1.49;75.23;98495.75;5087057;28;20039;-69
2022/12/21 08:18:48;;;;;;;30.13;13.57;;;;;;;1.49;74.89;98504.69;5088928;28;20419;-69
2022/12/21 08:21:15;;;;;;;27.45;12.40;;;;;;;1.52;75.15;98495.28;5090195;28;20070;-69
2022/12/21 08:23:40;;;;;;;28.92;13.25;;;;;;;1.52;74.98;98507.97;5090801;28;20050;-67
2022/12/21 08:26:08;;;;;;;38.63;14.85;;;;;;;1.57;75.00;98510.78;5087721;28;20024;-69
2022/12/21 08:28:34;;;;;;;27.77;12.82;;;;;;;1.59;75.42;98495.16;5089871;28;20028;-69
2022/12/21 08:31:06;;;;;;;28.77;14.15;;;;;;;1.60;74.68;98492.22;5088184;28;20028;-69
2022/12/21 08:33:31;;;;;;;27.38;12.70;;;;;;;1.65;75.37;98483.41;5086733;28;20541;-68
2022/12/21 08:35:57;;;;;;;27.02;12.52;;;;;;;1.66;74.70;98501.28;5089864;28;20031;-66
2022/12/21 08:38:22;;;;;;;26.83;13.40;;;;;;;1.69;75.33;98499.97;5086222;28;20487;-69
2022/12/21 08:40:48;;;;;;;26.35;11.40;;;;;;;1.72;74.59;98492.22;5086460;28;20031;-68
2022/12/21 08:43:13;;;;;;;25.77;13.00;;;;;;;1.73;74.58;98495.72;5088446;28;20031;-68
2022/12/21 08:45:39;;;;;;;25.20;12.45;;;;;;;1.75;74.53;98504.41;5072225;28;20106;-69
2022/12/21 08:48:05;;;;;;;24.17;12.07;;;;;;;1.78;74.67;98490.44;5088509;28;20032;-68
2022/12/21 08:50:30;;;;;;;24.98;11.70;;;;;;;1.78;74.85;98507.50;5089826;28;20357;-68
2022/12/21 08:52:55;;;;;;;26.50;12.32;;;;;;;1.80;74.91;98501.03;5090007;28;20020;-68
2022/12/21 08:55:21;;;;;;;25.52;12.57;;;;;;;1.82;74.62;98517.84;5087372;28;20028;-69
2022/12/21 08:57:46;;;;;;;26.67;12.88;;;;;;;1.82;74.22;98521.34;5087486;28;20039;-67
2022/12/21 09:00:12;;;;;;;26.40;12.32;;;;;;;1.87;74.64;98513.34;5082215;28;20474;-69
2022/12/21 09:02:38;;;;;;;25.67;13.60;;;;;;;1.88;74.38;98511.44;5088991;28;20032;-68
2022/12/21 09:05:04;;;;;;;23.85;12.35;;;;;;;1.88;74.68;98497.94;5088177;28;20027;-68
2022/12/21 09:07:29;;;;;;;24.48;12.65;;;;;;;1.90;74.09;98507.47;5087265;28;20041;-69
2022/12/21 09:09:55;;;;;;;23.20;11.82;;;;;;;1.92;74.51;98493.69;5088322;28;20051;-68
2022/12/21 09:12:20;;;;;;;26.30;12.48;;;;;;;1.93;74.49;98503.44;5089362;28;20115;-68
2022/12/21 09:14:45;;;;;;;27.52;12.48;;;;;;;1.94;74.80;98505.09;5089753;28;20078;-67
2022/12/21 09:17:11;;;;;;;24.42;12.30;;;;;;;2.00;74.13;98511.44;5083180;28;20040;-68
2022/12/21 09:19:37;;;;;;;24.40;12.32;;;;;;;2.02;74.07;98502.03;5086124;28;20044;-68
2022/12/21 09:22:03;;;;;;;25.02;12.27;;;;;;;2.04;74.22;98496.34;5051764;28;20040;-67
2022/12/21 09:24:28;;;;;;;24.35;12.40;;;;;;;2.07;74.69;98506.69;5046564;28;20512;-67
2022/12/21 09:26:54;;;;;;;23.77;12.13;;;;;;;2.07;74.41;98506.69;5048291;28;20466;-68
2022/12/21 09:29:22;;;;;;;34.50;14.10;;;;;;;2.10;74.23;98513.53;5047459;28;20040;-69
2022/12/21 09:31:47;;;;;;;26.52;13.50;;;;;;;2.11;74.06;98520.59;5048200;28;20580;-67
2022/12/21 09:34:13;;;;;;;31.13;15.77;;;;;;;2.15;73.81;98529.88;5046198;28;20037;-69
2022/12/21 09:36:38;;;;;;;28.60;14.13;;;;;;;2.14;73.52;98528.22;5047528;28;20025;-69
2022/12/21 09:39:03;;;;;;;28.80;14.27;;;;;;;2.14;73.91;98522.81;5050983;28;20547;-70
2022/12/21 09:41:36;;;;;;;26.98;13.00;;;;;;;2.13;73.48;98527.41;5048255;28;20040;-71
2022/12/21 09:44:04;;;;;;;24.98;12.20;;;;;;;2.14;73.46;98512.81;5048640;28;20040;-70
2022/12/21 09:46:35;;;;;;;23.83;12.27;;;;;;;2.14;73.86;98509.28;5048069;28;20032;-69
2022/12/21 09:49:07;;;;;;;25.60;13.07;;;;;;;2.15;74.00;98513.63;5048767;28;20026;-69
2022/12/21 09:51:35;;;;;;;25.63;13.02;;;;;;;2.15;74.26;98494.69;5046727;28;20154;-69
2022/12/21 09:54:07;;;;;;;22.73;11.20;;;;;;;2.11;74.29;98501.66;5047173;28;20060;-69
2022/12/21 09:56:39;;;;;;;22.80;12.50;;;;;;;2.12;74.05;98509.50;5048782;28;20064;-68
2022/12/21 09:59:10;;;;;;;24.63;11.88;;;;;;;2.11;74.49;98497.03;5049585;28;20026;-66
2022/12/21 10:01:57;;;;;;;25.42;12.48;;;;;;;2.11;73.69;98507.88;5049298;28;20116;-65
2022/12/21 10:05:01;;;;;;;22.25;12.43;;;;;;;2.12;74.63;98496.00;5048789;28;20848;-65
2022/12/21 10:07:50;;;;;;;22.48;11.45;;;;;;;2.15;74.70;98508.22;5037014;28;20480;-68
2022/12/21 10:10:39;;;;;;;28.30;12.70;;;;;;;2.14;74.54;98515.50;5049463;28;20033;-68
2022/12/21 10:13:13;;;;;;;23.98;11.82;;;;;;;2.13;74.26;98497.63;5050029;28;20029;-68
2022/12/21 10:15:44;;;;;;;28.35;13.65;;;;;;;2.15;74.39;98505.53;5049164;28;20033;-67
2022/12/21 10:18:20;;;;;;;23.48;12.77;;;;;;;2.18;74.40;98499.63;5047700;28;20040;-68
2022/12/21 10:21:04;;;;;;;25.52;12.80;;;;;;;2.17;73.61;98503.41;5051327;28;20032;-67
2022/12/21 10:23:39;;;;;;;25.25;12.70;;;;;;;2.19;73.68;98495.88;5089145;28;20506;-67
2022/12/21 10:26:07;;;;;;;23.30;11.63;;;;;;;2.18;74.28;98481.50;5089101;28;20118;-67
2022/12/21 10:28:38;;;;;;;29.50;14.50;;;;;;;2.20;74.57;98484.78;5088812;28;20024;-66
2022/12/21 10:31:06;;;;;;;27.83;14.05;;;;;;;2.22;74.12;98487.28;5089654;28;20036;-66
2022/12/21 10:33:37;;;;;;;25.83;12.50;;;;;;;2.23;73.89;98478.91;5072561;28;20032;-66
2022/12/21 10:36:04;;;;;;;22.83;11.02;;;;;;;2.26;73.55;98461.34;5085917;28;20024;-67
2022/12/21 10:38:33;;;;;;;24.40;12.68;;;;;;;2.27;73.83;98462.19;5081359;28;20032;-66
2022/12/21 10:41:00;;;;;;;30.83;17.03;;;;;;;2.28;74.33;98463.81;5088045;28;20064;-67
2022/12/21 10:43:26;;;;;;;24.35;12.20;;;;;;;2.30;73.48;98451.69;5070231;28;20035;-66
2022/12/21 10:45:51;;;;;;;25.67;12.32;;;;;;;2.29;74.37;98450.03;5089077;28;20376;-67
2022/12/21 10:48:18;;;;;;;25.88;12.60;;;;;;;2.30;73.40;98440.84;5071236;28;20520;-67
2022/12/21 10:50:47;;;;;;;24.00;12.40;;;;;;;2.33;73.74;98447.69;5089246;28;20031;-66
2022/12/21 10:53:24;;;;;;;23.17;12.20;;;;;;;2.34;73.47;98446.63;5088572;28;20450;-66
2022/12/21 10:55:56;;;;;;;27.90;12.82;;;;;;;2.35;73.57;98442.84;5092591;28;20032;-67
2022/12/21 10:58:25;;;;;;;25.38;14.02;;;;;;;2.35;73.37;98448.25;5093007;28;20032;-66
2022/12/21 11:00:58;;;;;;;22.83;12.05;;;;;;;2.38;74.15;98443.19;5092580;28;20020;-67
2022/12/21 11:03:31;;;;;;;27.08;13.18;;;;;;;2.37;74.01;98440.72;5092944;28;20024;-66
2022/12/21 11:05:57;;;;;;;25.90;12.95;;;;;;;2.40;74.18;98437.53;5092975;28;20032;-66
2022/12/21 11:08:31;;;;;;;26.17;13.50;;;;;;;2.40;73.96;98434.81;5092765;28;20086;-67
2022/12/21 11:11:00;;;;;;;26.25;12.13;;;;;;;2.43;73.69;98428.94;5092797;28;20119;-67
2022/12/21 11:13:28;;;;;;;30.83;15.75;;;;;;;2.42;74.02;98423.75;5093830;28;20034;-68
2022/12/21 11:16:10;;;;;;;25.38;13.63;;;;;;;2.41;73.40;98419.41;5093767;28;20086;-67
2022/12/21 11:18:49;;;;;;;27.38;13.02;;;;;;;2.38;73.45;98434.25;5093445;28;20488;-68
2022/12/21 11:21:26;;;;;;;28.73;14.90;;;;;;;2.36;73.46;98428.25;5093462;28;20442;-68
2022/12/21 11:23:58;;;;;;;29.95;13.55;;;;;;;2.37;73.39;98422.59;5093635;28;20020;-67
2022/12/21 11:26:30;;;;;;;30.45;14.60;;;;;;;2.41;74.18;98416.69;5092898;28;20024;-67
2022/12/21 11:29:06;;;;;;;26.67;14.07;;;;;;;2.44;73.78;98429.72;5093738;28;20036;-67
2022/12/21 11:31:33;;;;;;;28.83;13.80;;;;;;;2.46;73.66;98422.19;5093469;28;20408;-67
2022/12/21 11:33:59;;;;;;;26.20;13.23;;;;;;;2.50;73.32;98424.16;5093490;28;20111;-67
2022/12/21 11:36:24;;;;;;;24.27;12.25;;;;;;;2.51;73.74;98430.41;5075154;28;20109;-67
2022/12/21 11:38:50;;;;;;;24.90;13.27;;;;;;;2.52;74.34;98423.94;5093164;28;20040;-67
2022/12/21 11:41:29;;;;;;;29.85;14.30;;;;;;;2.52;73.55;98437.47;5092510;28;20077;-67
2022/12/21 11:43:55;;;;;;;28.00;13.75;;;;;;;2.56;73.43;98435.91;5093085;28;20035;-67
2022/12/21 11:46:33;;;;;;;30.38;15.60;;;;;;;2.56;73.72;98435.91;5093091;28;20027;-67
2022/12/21 11:49:02;;;;;;;36.75;17.38;;;;;;;2.56;74.29;98444.03;5093176;28;20040;-67
2022/12/21 11:51:45;;;;;;;34.40;15.13;;;;;;;2.56;74.59;98429.66;5092595;28;20024;-67